Home   Weather   Mali i Kaçivelit   Past weeks
Flag for Albania

Past Weather in Mali i Kaçivelit, Albania — Yesterday and Last 2 Weeks

Currently: 34 °F. Clear. (Weather station: Tirana Airport, Albania). See more current weather

Past Weather in Mali i Kaçivelit — Graph

°F

Mali i Kaçivelit Temperature Yesterday

Maximum temperature yesterday: 46 °F (at 12:50 pm)
Minimum temperature yesterday: 21 °F (at 4:20 am)
Average temperature yesterday: 33 °F

High & Low Weather Summary for the Past Weeks

 TemperatureHumidityPressure
High63 °F (Jan 8, 1:20 pm)100% (Jan 7, 7:50 pm)30.36 "Hg (Jan 7, 7:50 pm)
Low21 °F (Jan 17, 6:20 am)22% (Jan 17, 3:20 pm)29.74 "Hg (Jan 8, 12:20 pm)
Average44 °F76%29.95 "Hg
* Reported Jan 5 4:20 am — Jan 20 4:20 am, Mali i Kaçivelit. Weather by CustomWeather, © 2021

Note: Actual official high and low records may vary slightly from our data, if they occured in-between our weather recording intervals... More about our weather records

Mali i Kaçivelit Weather History for the Previous 24 Hours

Scroll right to see more
 ConditionsComfort  
Time TempWeatherWind HumidityBarometerVisibility
4:20 am
Wed, Jan 20
37 °FPassing clouds.8 mph56%30.33 "HgN/A
3:50 am39 °FOvercast.8 mph56%30.33 "HgN/A
3:20 am39 °FPartly cloudy.7 mph56%30.33 "HgN/A
2:50 am37 °FPartly cloudy.6 mph60%30.33 "HgN/A
2:20 am37 °FPassing clouds.7 mph60%30.33 "HgN/A
1:50 am37 °FPassing clouds.5 mph60%30.36 "HgN/A
12:50 am37 °FMostly cloudy.6 mph60%30.33 "HgN/A
12:20 am37 °FMostly cloudy.8 mph60%30.36 "HgN/A
11:50 pm
Tue, Jan 19
36 °FMostly cloudy.6 mph65%30.36 "HgN/A
11:20 pm36 °FMostly cloudy.7 mph65%30.36 "HgN/A
10:50 pm34 °FOvercast.8 mph70%30.36 "HgN/A
10:20 pm32 °FPassing clouds.6 mph75%30.36 "HgN/A
9:50 pm32 °FPassing clouds.2 mph75%30.36 "HgN/A
9:20 pm32 °FPassing clouds.5 mph75%30.36 "Hg5 mi
8:20 pm28 °FClear.5 mph80%30.33 "Hg4 mi
7:50 pm30 °FClear.3 mph75%30.33 "Hg10 mi
7:20 pm28 °FClear.5 mph74%30.33 "Hg10 mi
6:50 pm30 °FPassing clouds.3 mph69%30.33 "HgN/A
6:20 pm32 °FClear.3 mph64%30.33 "Hg10 mi
5:50 pm39 °FClear.1 mph45%30.33 "Hg10 mi
5:20 pm37 °FClear.3 mph52%30.33 "Hg10 mi
4:50 pm43 °FClear.1 mph39%30.30 "Hg10 mi
4:20 pm46 °FSunny.1 mph32%30.30 "Hg10 mi
3:50 pm46 °FSunny.5 mph32%30.30 "Hg10 mi
3:20 pm46 °FSunny.3 mph29%30.30 "Hg10 mi
2:50 pm46 °FPassing clouds.5 mph29%30.30 "HgN/A
2:20 pm46 °FSunny.6 mph32%30.30 "Hg10 mi
1:50 pm46 °FPassing clouds.5 mph34%30.30 "HgN/A
12:50 pm46 °FPassing clouds.5 mph29%30.30 "HgN/A
12:20 pm45 °FPassing clouds.6 mph37%30.30 "HgN/A
11:50 am45 °FPassing clouds.3 mph37%30.33 "HgN/A
11:20 am43 °FSunny.1 mph39%30.33 "Hg10 mi
10:50 am41 °FSunny.1 mph45%30.33 "Hg10 mi
10:20 am39 °FSunny.2 mph52%30.33 "Hg10 mi
9:50 am36 °FSunny.2 mph65%30.33 "Hg10 mi
9:20 am34 °FSunny.3 mph65%30.33 "Hg10 mi
8:50 am30 °FSunny.3 mph75%30.30 "Hg10 mi
8:20 am27 °FSunny.6 mph86%30.30 "Hg10 mi
7:50 am23 °FSunny.2 mph86%30.30 "Hg10 mi
7:20 am21 °FSunny.2 mph86%30.30 "Hg10 mi
6:50 am21 °FClear.2 mph86%30.30 "Hg10 mi
6:20 am21 °FClear.3 mph86%30.27 "Hg10 mi
5:50 am23 °FClear.5 mph86%30.27 "Hg10 mi
5:20 am21 °FClear.5 mph86%30.27 "Hg10 mi
Weather by CustomWeather, © 2021

See weather overview